sensor_id;sensor_type;location;lat;lon;timestamp;P1;durP1;ratioP1;P2;durP2;ratioP2
12635;SDS011;6383;50.830;7.210;2023-09-30T00:00:07;14.20;;;5.22;;
12635;SDS011;6383;50.830;7.210;2023-09-30T00:02:36;16.45;;;5.38;;
12635;SDS011;6383;50.830;7.210;2023-09-30T00:05:05;13.27;;;5.25;;
12635;SDS011;6383;50.830;7.210;2023-09-30T00:07:35;15.65;;;6.22;;
12635;SDS011;6383;50.830;7.210;2023-09-30T00:10:05;13.38;;;5.85;;
12635;SDS011;6383;50.830;7.210;2023-09-30T00:12:34;13.98;;;5.47;;
12635;SDS011;6383;50.830;7.210;2023-09-30T00:15:04;15.13;;;5.90;;
12635;SDS011;6383;50.830;7.210;2023-09-30T00:17:33;13.03;;;5.30;;
12635;SDS011;6383;50.830;7.210;2023-09-30T00:20:02;14.55;;;5.20;;
12635;SDS011;6383;50.830;7.210;2023-09-30T00:22:30;15.38;;;5.07;;
12635;SDS011;6383;50.830;7.210;2023-09-30T00:24:59;15.88;;;5.28;;
12635;SDS011;6383;50.830;7.210;2023-09-30T00:27:29;11.55;;;5.15;;
12635;SDS011;6383;50.830;7.210;2023-09-30T00:29:56;10.90;;;4.80;;
12635;SDS011;6383;50.830;7.210;2023-09-30T00:32:25;12.88;;;5.18;;
12635;SDS011;6383;50.830;7.210;2023-09-30T00:34:53;12.05;;;5.38;;
12635;SDS011;6383;50.830;7.210;2023-09-30T00:37:22;12.27;;;5.00;;
12635;SDS011;6383;50.830;7.210;2023-09-30T00:39:51;13.15;;;5.10;;
12635;SDS011;6383;50.830;7.210;2023-09-30T00:42:19;11.90;;;5.03;;
12635;SDS011;6383;50.830;7.210;2023-09-30T00:44:49;14.88;;;5.38;;
12635;SDS011;6383;50.830;7.210;2023-09-30T00:47:17;13.38;;;4.93;;
12635;SDS011;6383;50.830;7.210;2023-09-30T00:49:49;13.85;;;5.18;;
12635;SDS011;6383;50.830;7.210;2023-09-30T00:52:21;12.57;;;5.03;;
12635;SDS011;6383;50.830;7.210;2023-09-30T00:54:51;13.05;;;5.93;;
12635;SDS011;6383;50.830;7.210;2023-09-30T00:57:22;13.50;;;5.30;;
12635;SDS011;6383;50.830;7.210;2023-09-30T00:59:52;9.43;;;4.88;;
12635;SDS011;6383;50.830;7.210;2023-09-30T01:02:20;13.18;;;5.47;;
12635;SDS011;6383;50.830;7.210;2023-09-30T01:04:50;11.57;;;5.75;;
12635;SDS011;6383;50.830;7.210;2023-09-30T01:07:20;10.38;;;4.70;;
12635;SDS011;6383;50.830;7.210;2023-09-30T01:09:49;11.88;;;4.90;;
12635;SDS011;6383;50.830;7.210;2023-09-30T01:12:17;10.63;;;4.90;;
12635;SDS011;6383;50.830;7.210;2023-09-30T01:14:46;11.73;;;4.65;;
12635;SDS011;6383;50.830;7.210;2023-09-30T01:17:16;12.23;;;5.25;;
12635;SDS011;6383;50.830;7.210;2023-09-30T01:19:45;10.38;;;4.65;;
12635;SDS011;6383;50.830;7.210;2023-09-30T01:22:15;10.80;;;5.18;;
12635;SDS011;6383;50.830;7.210;2023-09-30T01:24:44;8.73;;;4.82;;
12635;SDS011;6383;50.830;7.210;2023-09-30T01:27:15;11.48;;;4.60;;
12635;SDS011;6383;50.830;7.210;2023-09-30T01:29:44;11.10;;;5.13;;
12635;SDS011;6383;50.830;7.210;2023-09-30T01:32:12;11.25;;;5.22;;
12635;SDS011;6383;50.830;7.210;2023-09-30T01:34:41;10.67;;;5.10;;
12635;SDS011;6383;50.830;7.210;2023-09-30T01:37:10;11.68;;;5.03;;
12635;SDS011;6383;50.830;7.210;2023-09-30T01:39:38;12.88;;;4.70;;
12635;SDS011;6383;50.830;7.210;2023-09-30T01:42:07;10.63;;;5.07;;
12635;SDS011;6383;50.830;7.210;2023-09-30T01:44:36;15.60;;;5.93;;
12635;SDS011;6383;50.830;7.210;2023-09-30T01:47:03;14.18;;;5.20;;
12635;SDS011;6383;50.830;7.210;2023-09-30T01:49:31;12.27;;;5.05;;
12635;SDS011;6383;50.830;7.210;2023-09-30T01:51:59;12.95;;;4.70;;
12635;SDS011;6383;50.830;7.210;2023-09-30T01:54:27;9.35;;;4.68;;
12635;SDS011;6383;50.830;7.210;2023-09-30T01:56:58;10.55;;;4.95;;
12635;SDS011;6383;50.830;7.210;2023-09-30T01:59:27;11.55;;;4.90;;
12635;SDS011;6383;50.830;7.210;2023-09-30T02:01:56;8.93;;;4.82;;
12635;SDS011;6383;50.830;7.210;2023-09-30T02:04:25;11.98;;;4.57;;
12635;SDS011;6383;50.830;7.210;2023-09-30T02:06:54;8.60;;;4.40;;
12635;SDS011;6383;50.830;7.210;2023-09-30T02:09:23;8.95;;;4.32;;
12635;SDS011;6383;50.830;7.210;2023-09-30T02:11:52;13.82;;;4.57;;
12635;SDS011;6383;50.830;7.210;2023-09-30T02:14:22;12.52;;;4.65;;
12635;SDS011;6383;50.830;7.210;2023-09-30T02:16:52;10.57;;;4.50;;
12635;SDS011;6383;50.830;7.210;2023-09-30T02:19:20;12.23;;;5.25;;
12635;SDS011;6383;50.830;7.210;2023-09-30T02:21:49;11.30;;;4.77;;
12635;SDS011;6383;50.830;7.210;2023-09-30T02:24:16;14.23;;;5.05;;
12635;SDS011;6383;50.830;7.210;2023-09-30T02:26:45;13.50;;;5.00;;
12635;SDS011;6383;50.830;7.210;2023-09-30T02:29:14;12.50;;;4.93;;
12635;SDS011;6383;50.830;7.210;2023-09-30T02:31:42;8.93;;;4.82;;
12635;SDS011;6383;50.830;7.210;2023-09-30T02:34:10;11.35;;;5.10;;
12635;SDS011;6383;50.830;7.210;2023-09-30T02:36:39;8.90;;;4.88;;
12635;SDS011;6383;50.830;7.210;2023-09-30T02:39:07;9.25;;;4.60;;
12635;SDS011;6383;50.830;7.210;2023-09-30T02:41:35;11.43;;;5.18;;
12635;SDS011;6383;50.830;7.210;2023-09-30T02:44:05;11.25;;;5.30;;
12635;SDS011;6383;50.830;7.210;2023-09-30T02:46:34;15.15;;;5.50;;
12635;SDS011;6383;50.830;7.210;2023-09-30T02:49:05;11.68;;;5.47;;
12635;SDS011;6383;50.830;7.210;2023-09-30T02:51:34;13.38;;;5.32;;
12635;SDS011;6383;50.830;7.210;2023-09-30T02:54:02;13.93;;;5.22;;
12635;SDS011;6383;50.830;7.210;2023-09-30T02:56:32;10.23;;;4.90;;
12635;SDS011;6383;50.830;7.210;2023-09-30T02:59:00;16.80;;;5.23;;
12635;SDS011;6383;50.830;7.210;2023-09-30T03:01:29;13.40;;;4.43;;
12635;SDS011;6383;50.830;7.210;2023-09-30T03:03:57;11.32;;;5.00;;
12635;SDS011;6383;50.830;7.210;2023-09-30T03:06:27;12.48;;;4.93;;
12635;SDS011;6383;50.830;7.210;2023-09-30T03:08:55;12.02;;;4.65;;
12635;SDS011;6383;50.830;7.210;2023-09-30T03:11:22;13.02;;;5.07;;
12635;SDS011;6383;50.830;7.210;2023-09-30T03:13:50;11.15;;;5.10;;
12635;SDS011;6383;50.830;7.210;2023-09-30T03:16:19;13.23;;;5.47;;
12635;SDS011;6383;50.830;7.210;2023-09-30T03:18:46;13.00;;;5.50;;
12635;SDS011;6383;50.830;7.210;2023-09-30T03:21:15;14.15;;;5.43;;
12635;SDS011;6383;50.830;7.210;2023-09-30T03:23:45;13.88;;;5.32;;
12635;SDS011;6383;50.830;7.210;2023-09-30T03:26:14;12.63;;;4.63;;
12635;SDS011;6383;50.830;7.210;2023-09-30T03:28:42;9.93;;;4.63;;
12635;SDS011;6383;50.830;7.210;2023-09-30T03:31:11;9.40;;;4.80;;
12635;SDS011;6383;50.830;7.210;2023-09-30T03:33:38;8.95;;;4.78;;
12635;SDS011;6383;50.830;7.210;2023-09-30T03:36:08;10.35;;;5.20;;
12635;SDS011;6383;50.830;7.210;2023-09-30T03:38:38;12.88;;;5.57;;
12635;SDS011;6383;50.830;7.210;2023-09-30T03:41:10;15.68;;;5.20;;
12635;SDS011;6383;50.830;7.210;2023-09-30T03:43:40;13.30;;;5.32;;
12635;SDS011;6383;50.830;7.210;2023-09-30T03:46:09;11.20;;;5.05;;
12635;SDS011;6383;50.830;7.210;2023-09-30T03:48:38;11.10;;;5.75;;
12635;SDS011;6383;50.830;7.210;2023-09-30T03:51:08;12.82;;;5.97;;
12635;SDS011;6383;50.830;7.210;2023-09-30T03:53:41;10.07;;;5.38;;
12635;SDS011;6383;50.830;7.210;2023-09-30T03:56:11;15.97;;;7.13;;
12635;SDS011;6383;50.830;7.210;2023-09-30T03:58:39;14.15;;;7.18;;
12635;SDS011;6383;50.830;7.210;2023-09-30T04:01:09;12.35;;;6.30;;
12635;SDS011;6383;50.830;7.210;2023-09-30T04:03:40;15.02;;;5.78;;
12635;SDS011;6383;50.830;7.210;2023-09-30T04:06:10;12.45;;;5.57;;
12635;SDS011;6383;50.830;7.210;2023-09-30T04:08:40;11.38;;;6.05;;
12635;SDS011;6383;50.830;7.210;2023-09-30T04:11:12;8.25;;;5.80;;
12635;SDS011;6383;50.830;7.210;2023-09-30T04:13:45;9.48;;;5.70;;
12635;SDS011;6383;50.830;7.210;2023-09-30T04:16:14;14.35;;;6.18;;
12635;SDS011;6383;50.830;7.210;2023-09-30T04:18:42;11.80;;;6.30;;
12635;SDS011;6383;50.830;7.210;2023-09-30T04:21:11;11.57;;;5.78;;
12635;SDS011;6383;50.830;7.210;2023-09-30T04:23:40;14.93;;;6.55;;
12635;SDS011;6383;50.830;7.210;2023-09-30T04:26:09;11.73;;;6.17;;
12635;SDS011;6383;50.830;7.210;2023-09-30T04:28:39;15.32;;;6.65;;
12635;SDS011;6383;50.830;7.210;2023-09-30T04:31:07;14.70;;;7.28;;
12635;SDS011;6383;50.830;7.210;2023-09-30T04:33:37;11.95;;;6.72;;
12635;SDS011;6383;50.830;7.210;2023-09-30T04:36:08;14.30;;;7.40;;
12635;SDS011;6383;50.830;7.210;2023-09-30T04:38:38;13.73;;;7.22;;
12635;SDS011;6383;50.830;7.210;2023-09-30T04:41:07;10.63;;;6.97;;
12635;SDS011;6383;50.830;7.210;2023-09-30T04:43:35;13.33;;;6.67;;
12635;SDS011;6383;50.830;7.210;2023-09-30T04:46:07;10.90;;;6.40;;
12635;SDS011;6383;50.830;7.210;2023-09-30T04:48:34;12.82;;;6.68;;
12635;SDS011;6383;50.830;7.210;2023-09-30T04:51:05;13.40;;;6.43;;
12635;SDS011;6383;50.830;7.210;2023-09-30T04:53:34;9.50;;;6.50;;
12635;SDS011;6383;50.830;7.210;2023-09-30T04:56:02;11.57;;;6.35;;
12635;SDS011;6383;50.830;7.210;2023-09-30T04:58:30;11.90;;;6.35;;
12635;SDS011;6383;50.830;7.210;2023-09-30T05:00:59;9.60;;;5.85;;
12635;SDS011;6383;50.830;7.210;2023-09-30T05:03:28;8.45;;;5.90;;
12635;SDS011;6383;50.830;7.210;2023-09-30T05:05:57;9.85;;;5.93;;
12635;SDS011;6383;50.830;7.210;2023-09-30T05:08:25;9.38;;;5.80;;
12635;SDS011;6383;50.830;7.210;2023-09-30T05:10:56;9.52;;;5.97;;
12635;SDS011;6383;50.830;7.210;2023-09-30T05:13:25;8.57;;;5.80;;
12635;SDS011;6383;50.830;7.210;2023-09-30T05:15:54;7.93;;;5.80;;
12635;SDS011;6383;50.830;7.210;2023-09-30T05:18:23;9.98;;;5.80;;
12635;SDS011;6383;50.830;7.210;2023-09-30T05:20:53;13.70;;;6.28;;
12635;SDS011;6383;50.830;7.210;2023-09-30T05:23:23;9.00;;;5.55;;
12635;SDS011;6383;50.830;7.210;2023-09-30T05:25:53;12.05;;;6.25;;
12635;SDS011;6383;50.830;7.210;2023-09-30T05:28:21;15.00;;;6.38;;
12635;SDS011;6383;50.830;7.210;2023-09-30T05:30:49;12.82;;;6.57;;
12635;SDS011;6383;50.830;7.210;2023-09-30T05:33:19;20.50;;;7.60;;
12635;SDS011;6383;50.830;7.210;2023-09-30T05:35:48;17.27;;;8.90;;
12635;SDS011;6383;50.830;7.210;2023-09-30T05:38:18;13.65;;;7.60;;
12635;SDS011;6383;50.830;7.210;2023-09-30T05:40:48;13.40;;;7.78;;
12635;SDS011;6383;50.830;7.210;2023-09-30T05:43:17;13.52;;;7.70;;
12635;SDS011;6383;50.830;7.210;2023-09-30T05:45:47;18.98;;;9.38;;
12635;SDS011;6383;50.830;7.210;2023-09-30T05:48:21;11.97;;;7.87;;
12635;SDS011;6383;50.830;7.210;2023-09-30T05:50:50;13.38;;;8.05;;
12635;SDS011;6383;50.830;7.210;2023-09-30T05:53:20;11.95;;;8.05;;
12635;SDS011;6383;50.830;7.210;2023-09-30T05:55:49;10.13;;;7.50;;
12635;SDS011;6383;50.830;7.210;2023-09-30T05:58:18;11.25;;;6.88;;
12635;SDS011;6383;50.830;7.210;2023-09-30T06:00:48;10.90;;;7.05;;
12635;SDS011;6383;50.830;7.210;2023-09-30T06:03:17;17.17;;;8.82;;
12635;SDS011;6383;50.830;7.210;2023-09-30T06:05:47;19.95;;;10.57;;
12635;SDS011;6383;50.830;7.210;2023-09-30T06:08:16;25.63;;;11.32;;
12635;SDS011;6383;50.830;7.210;2023-09-30T06:10:46;23.33;;;11.65;;
12635;SDS011;6383;50.830;7.210;2023-09-30T06:13:15;36.72;;;9.05;;
12635;SDS011;6383;50.830;7.210;2023-09-30T06:15:43;13.48;;;8.50;;
12635;SDS011;6383;50.830;7.210;2023-09-30T06:18:14;25.10;;;8.83;;
12635;SDS011;6383;50.830;7.210;2023-09-30T06:20:43;19.20;;;9.33;;
12635;SDS011;6383;50.830;7.210;2023-09-30T06:23:12;23.33;;;9.00;;
12635;SDS011;6383;50.830;7.210;2023-09-30T06:25:41;14.68;;;9.43;;
12635;SDS011;6383;50.830;7.210;2023-09-30T06:28:10;15.57;;;9.85;;
12635;SDS011;6383;50.830;7.210;2023-09-30T06:30:41;14.25;;;10.00;;
12635;SDS011;6383;50.830;7.210;2023-09-30T06:33:13;12.25;;;9.63;;
12635;SDS011;6383;50.830;7.210;2023-09-30T06:35:43;16.35;;;10.25;;
12635;SDS011;6383;50.830;7.210;2023-09-30T06:38:17;47.97;;;9.90;;
12635;SDS011;6383;50.830;7.210;2023-09-30T06:40:45;98.28;;;11.23;;
12635;SDS011;6383;50.830;7.210;2023-09-30T06:43:16;40.97;;;9.90;;
12635;SDS011;6383;50.830;7.210;2023-09-30T06:45:45;125.53;;;11.45;;
12635;SDS011;6383;50.830;7.210;2023-09-30T06:48:15;16.75;;;8.38;;
12635;SDS011;6383;50.830;7.210;2023-09-30T06:50:44;27.10;;;8.40;;
12635;SDS011;6383;50.830;7.210;2023-09-30T06:53:15;14.13;;;8.25;;
12635;SDS011;6383;50.830;7.210;2023-09-30T06:55:44;24.63;;;9.48;;
12635;SDS011;6383;50.830;7.210;2023-09-30T06:58:15;24.58;;;9.27;;
12635;SDS011;6383;50.830;7.210;2023-09-30T07:00:49;13.98;;;9.13;;
12635;SDS011;6383;50.830;7.210;2023-09-30T07:03:19;23.77;;;9.68;;
12635;SDS011;6383;50.830;7.210;2023-09-30T07:05:48;21.55;;;9.50;;
12635;SDS011;6383;50.830;7.210;2023-09-30T07:08:17;109.28;;;10.85;;
12635;SDS011;6383;50.830;7.210;2023-09-30T07:10:47;71.13;;;9.88;;
12635;SDS011;6383;50.830;7.210;2023-09-30T07:13:18;19.50;;;9.15;;
12635;SDS011;6383;50.830;7.210;2023-09-30T07:15:48;40.88;;;9.10;;
12635;SDS011;6383;50.830;7.210;2023-09-30T07:18:16;14.15;;;9.75;;
12635;SDS011;6383;50.830;7.210;2023-09-30T07:20:46;13.23;;;9.52;;
12635;SDS011;6383;50.830;7.210;2023-09-30T07:23:14;43.42;;;10.48;;
12635;SDS011;6383;50.830;7.210;2023-09-30T07:25:42;33.33;;;9.48;;
12635;SDS011;6383;50.830;7.210;2023-09-30T07:28:11;30.00;;;9.70;;
12635;SDS011;6383;50.830;7.210;2023-09-30T07:30:41;12.68;;;9.70;;
12635;SDS011;6383;50.830;7.210;2023-09-30T07:33:09;13.68;;;10.40;;
12635;SDS011;6383;50.830;7.210;2023-09-30T07:35:38;13.68;;;12.20;;
12635;SDS011;6383;50.830;7.210;2023-09-30T07:38:07;16.83;;;9.77;;
12635;SDS011;6383;50.830;7.210;2023-09-30T07:40:36;12.35;;;9.60;;
12635;SDS011;6383;50.830;7.210;2023-09-30T07:43:05;21.63;;;10.63;;
12635;SDS011;6383;50.830;7.210;2023-09-30T07:45:35;49.00;;;11.23;;
12635;SDS011;6383;50.830;7.210;2023-09-30T07:48:04;37.83;;;11.80;;
12635;SDS011;6383;50.830;7.210;2023-09-30T07:50:36;16.17;;;11.85;;
12635;SDS011;6383;50.830;7.210;2023-09-30T07:53:06;62.80;;;13.27;;
12635;SDS011;6383;50.830;7.210;2023-09-30T07:55:35;150.75;;;14.98;;
12635;SDS011;6383;50.830;7.210;2023-09-30T07:58:03;14.35;;;12.20;;
12635;SDS011;6383;50.830;7.210;2023-09-30T08:00:32;16.08;;;12.98;;
12635;SDS011;6383;50.830;7.210;2023-09-30T08:03:01;18.10;;;12.43;;
12635;SDS011;6383;50.830;7.210;2023-09-30T08:05:31;14.90;;;12.75;;
12635;SDS011;6383;50.830;7.210;2023-09-30T08:08:01;20.80;;;13.20;;
12635;SDS011;6383;50.830;7.210;2023-09-30T08:10:31;16.85;;;13.95;;
12635;SDS011;6383;50.830;7.210;2023-09-30T08:13:00;17.25;;;13.43;;
12635;SDS011;6383;50.830;7.210;2023-09-30T08:15:29;17.70;;;13.25;;
12635;SDS011;6383;50.830;7.210;2023-09-30T08:17:57;17.30;;;13.38;;
12635;SDS011;6383;50.830;7.210;2023-09-30T08:20:25;17.63;;;13.93;;
12635;SDS011;6383;50.830;7.210;2023-09-30T08:22:55;20.45;;;13.52;;
12635;SDS011;6383;50.830;7.210;2023-09-30T08:25:24;18.23;;;13.35;;
12635;SDS011;6383;50.830;7.210;2023-09-30T08:27:51;17.48;;;14.50;;
12635;SDS011;6383;50.830;7.210;2023-09-30T08:30:20;17.02;;;13.48;;
12635;SDS011;6383;50.830;7.210;2023-09-30T08:32:49;20.05;;;14.40;;
12635;SDS011;6383;50.830;7.210;2023-09-30T08:35:17;22.17;;;15.00;;
12635;SDS011;6383;50.830;7.210;2023-09-30T08:37:45;19.67;;;13.93;;
12635;SDS011;6383;50.830;7.210;2023-09-30T08:40:15;20.17;;;13.38;;
12635;SDS011;6383;50.830;7.210;2023-09-30T08:42:47;19.35;;;13.50;;
12635;SDS011;6383;50.830;7.210;2023-09-30T08:45:19;19.35;;;13.40;;
12635;SDS011;6383;50.830;7.210;2023-09-30T08:47:47;19.35;;;12.88;;
12635;SDS011;6383;50.830;7.210;2023-09-30T08:50:17;18.15;;;12.43;;
12635;SDS011;6383;50.830;7.210;2023-09-30T08:52:46;18.67;;;12.73;;
12635;SDS011;6383;50.830;7.210;2023-09-30T08:55:18;18.35;;;12.88;;
12635;SDS011;6383;50.830;7.210;2023-09-30T08:57:46;18.55;;;12.10;;
12635;SDS011;6383;50.830;7.210;2023-09-30T09:00:19;22.65;;;12.70;;
12635;SDS011;6383;50.830;7.210;2023-09-30T09:02:49;17.00;;;12.70;;
12635;SDS011;6383;50.830;7.210;2023-09-30T09:05:18;18.45;;;12.20;;
12635;SDS011;6383;50.830;7.210;2023-09-30T09:07:47;17.90;;;12.45;;
12635;SDS011;6383;50.830;7.210;2023-09-30T09:10:19;19.90;;;12.55;;
12635;SDS011;6383;50.830;7.210;2023-09-30T09:12:54;18.97;;;12.33;;
12635;SDS011;6383;50.830;7.210;2023-09-30T09:15:24;16.85;;;11.77;;
12635;SDS011;6383;50.830;7.210;2023-09-30T09:17:54;20.63;;;12.33;;
12635;SDS011;6383;50.830;7.210;2023-09-30T09:20:24;20.48;;;11.93;;
12635;SDS011;6383;50.830;7.210;2023-09-30T09:22:52;19.10;;;11.03;;
12635;SDS011;6383;50.830;7.210;2023-09-30T09:25:23;18.23;;;11.30;;
12635;SDS011;6383;50.830;7.210;2023-09-30T09:27:53;22.88;;;13.13;;
12635;SDS011;6383;50.830;7.210;2023-09-30T09:30:22;18.40;;;12.10;;
12635;SDS011;6383;50.830;7.210;2023-09-30T09:32:52;19.88;;;12.82;;
12635;SDS011;6383;50.830;7.210;2023-09-30T09:35:31;20.42;;;11.68;;
12635;SDS011;6383;50.830;7.210;2023-09-30T09:38:00;20.52;;;10.85;;
12635;SDS011;6383;50.830;7.210;2023-09-30T09:40:33;17.88;;;11.82;;
12635;SDS011;6383;50.830;7.210;2023-09-30T09:43:02;16.33;;;10.30;;
12635;SDS011;6383;50.830;7.210;2023-09-30T09:45:33;17.67;;;10.27;;
12635;SDS011;6383;50.830;7.210;2023-09-30T09:48:02;16.23;;;10.00;;
12635;SDS011;6383;50.830;7.210;2023-09-30T09:50:32;19.13;;;11.30;;
12635;SDS011;6383;50.830;7.210;2023-09-30T09:53:03;17.63;;;10.13;;
12635;SDS011;6383;50.830;7.210;2023-09-30T09:55:33;18.83;;;9.95;;
12635;SDS011;6383;50.830;7.210;2023-09-30T09:58:06;15.45;;;9.60;;
12635;SDS011;6383;50.830;7.210;2023-09-30T10:00:36;15.88;;;9.35;;
12635;SDS011;6383;50.830;7.210;2023-09-30T10:03:06;14.37;;;8.90;;
12635;SDS011;6383;50.830;7.210;2023-09-30T10:05:36;14.10;;;8.87;;
12635;SDS011;6383;50.830;7.210;2023-09-30T10:08:11;16.08;;;8.13;;
12635;SDS011;6383;50.830;7.210;2023-09-30T10:10:45;13.02;;;7.43;;
12635;SDS011;6383;50.830;7.210;2023-09-30T10:19:16;13.13;;;6.93;;
12635;SDS011;6383;50.830;7.210;2023-09-30T10:24:53;12.10;;;6.65;;
12635;SDS011;6383;50.830;7.210;2023-09-30T10:27:34;13.27;;;5.88;;
12635;SDS011;6383;50.830;7.210;2023-09-30T10:30:07;14.43;;;6.80;;
12635;SDS011;6383;50.830;7.210;2023-09-30T10:35:41;12.47;;;6.53;;
12635;SDS011;6383;50.830;7.210;2023-09-30T10:41:07;10.95;;;6.50;;
12635;SDS011;6383;50.830;7.210;2023-09-30T10:43:39;10.50;;;6.10;;
12635;SDS011;6383;50.830;7.210;2023-09-30T10:49:18;11.95;;;6.07;;
12635;SDS011;6383;50.830;7.210;2023-09-30T10:52:00;11.37;;;6.20;;
12635;SDS011;6383;50.830;7.210;2023-09-30T10:54:30;10.68;;;5.65;;
12635;SDS011;6383;50.830;7.210;2023-09-30T10:56:59;12.27;;;5.88;;
12635;SDS011;6383;50.830;7.210;2023-09-30T10:59:32;13.82;;;5.85;;
12635;SDS011;6383;50.830;7.210;2023-09-30T11:02:02;10.60;;;5.30;;
12635;SDS011;6383;50.830;7.210;2023-09-30T11:04:44;11.40;;;5.40;;
12635;SDS011;6383;50.830;7.210;2023-09-30T11:07:17;10.07;;;4.93;;
12635;SDS011;6383;50.830;7.210;2023-09-30T11:09:51;10.13;;;4.75;;
12635;SDS011;6383;50.830;7.210;2023-09-30T11:12:22;9.80;;;4.45;;
12635;SDS011;6383;50.830;7.210;2023-09-30T11:14:59;9.93;;;4.57;;
12635;SDS011;6383;50.830;7.210;2023-09-30T11:17:29;9.90;;;4.53;;
12635;SDS011;6383;50.830;7.210;2023-09-30T11:19:58;9.33;;;5.00;;
12635;SDS011;6383;50.830;7.210;2023-09-30T11:22:27;7.68;;;4.43;;
12635;SDS011;6383;50.830;7.210;2023-09-30T11:24:57;8.48;;;4.25;;
12635;SDS011;6383;50.830;7.210;2023-09-30T11:27:26;9.80;;;4.65;;
12635;SDS011;6383;50.830;7.210;2023-09-30T11:29:55;7.35;;;4.40;;
12635;SDS011;6383;50.830;7.210;2023-09-30T11:32:27;10.57;;;4.75;;
12635;SDS011;6383;50.830;7.210;2023-09-30T11:34:58;9.68;;;4.38;;
12635;SDS011;6383;50.830;7.210;2023-09-30T11:37:30;9.38;;;4.60;;
12635;SDS011;6383;50.830;7.210;2023-09-30T11:40:08;9.13;;;4.80;;
12635;SDS011;6383;50.830;7.210;2023-09-30T11:42:37;12.55;;;4.50;;
12635;SDS011;6383;50.830;7.210;2023-09-30T11:45:18;7.25;;;3.85;;
12635;SDS011;6383;50.830;7.210;2023-09-30T11:47:49;8.37;;;4.20;;
12635;SDS011;6383;50.830;7.210;2023-09-30T11:50:18;8.32;;;4.03;;
12635;SDS011;6383;50.830;7.210;2023-09-30T11:52:46;7.25;;;3.97;;
12635;SDS011;6383;50.830;7.210;2023-09-30T11:55:14;9.70;;;4.50;;
12635;SDS011;6383;50.830;7.210;2023-09-30T11:57:44;6.97;;;4.15;;
12635;SDS011;6383;50.830;7.210;2023-09-30T12:00:13;8.93;;;4.13;;
12635;SDS011;6383;50.830;7.210;2023-09-30T12:02:42;8.30;;;4.20;;
12635;SDS011;6383;50.830;7.210;2023-09-30T12:05:13;7.28;;;4.47;;
12635;SDS011;6383;50.830;7.210;2023-09-30T12:07:42;10.35;;;5.57;;
12635;SDS011;6383;50.830;7.210;2023-09-30T12:10:12;8.00;;;5.68;;
12635;SDS011;6383;50.830;7.210;2023-09-30T12:12:42;9.25;;;4.93;;
12635;SDS011;6383;50.830;7.210;2023-09-30T12:15:12;6.60;;;4.40;;
12635;SDS011;6383;50.830;7.210;2023-09-30T12:17:41;6.63;;;4.03;;
12635;SDS011;6383;50.830;7.210;2023-09-30T12:20:09;7.50;;;4.15;;
12635;SDS011;6383;50.830;7.210;2023-09-30T12:22:43;6.22;;;4.10;;
12635;SDS011;6383;50.830;7.210;2023-09-30T12:25:10;7.23;;;4.07;;
12635;SDS011;6383;50.830;7.210;2023-09-30T12:27:38;7.47;;;3.97;;
12635;SDS011;6383;50.830;7.210;2023-09-30T12:30:06;6.93;;;4.10;;
12635;SDS011;6383;50.830;7.210;2023-09-30T12:32:34;7.68;;;4.45;;
12635;SDS011;6383;50.830;7.210;2023-09-30T12:35:03;8.90;;;4.32;;
12635;SDS011;6383;50.830;7.210;2023-09-30T12:37:32;5.40;;;3.40;;
12635;SDS011;6383;50.830;7.210;2023-09-30T12:40:01;5.73;;;3.70;;
12635;SDS011;6383;50.830;7.210;2023-09-30T12:42:30;7.82;;;4.05;;
12635;SDS011;6383;50.830;7.210;2023-09-30T12:44:58;6.78;;;3.80;;
12635;SDS011;6383;50.830;7.210;2023-09-30T12:47:26;6.85;;;3.80;;
12635;SDS011;6383;50.830;7.210;2023-09-30T12:49:55;7.82;;;4.30;;
12635;SDS011;6383;50.830;7.210;2023-09-30T12:52:25;7.95;;;3.60;;
12635;SDS011;6383;50.830;7.210;2023-09-30T12:54:52;7.85;;;3.75;;
12635;SDS011;6383;50.830;7.210;2023-09-30T12:57:23;7.15;;;4.10;;
12635;SDS011;6383;50.830;7.210;2023-09-30T12:59:52;7.85;;;3.92;;
12635;SDS011;6383;50.830;7.210;2023-09-30T13:02:21;7.18;;;3.88;;
12635;SDS011;6383;50.830;7.210;2023-09-30T13:04:50;7.15;;;3.88;;
12635;SDS011;6383;50.830;7.210;2023-09-30T13:07:19;8.82;;;3.78;;
12635;SDS011;6383;50.830;7.210;2023-09-30T13:09:48;6.20;;;3.70;;
12635;SDS011;6383;50.830;7.210;2023-09-30T13:12:17;5.82;;;3.83;;
12635;SDS011;6383;50.830;7.210;2023-09-30T13:14:47;7.57;;;3.90;;
12635;SDS011;6383;50.830;7.210;2023-09-30T13:17:16;6.50;;;3.60;;
12635;SDS011;6383;50.830;7.210;2023-09-30T13:19:45;8.30;;;3.75;;
12635;SDS011;6383;50.830;7.210;2023-09-30T13:22:13;10.30;;;3.90;;
12635;SDS011;6383;50.830;7.210;2023-09-30T13:24:43;9.00;;;4.10;;
12635;SDS011;6383;50.830;7.210;2023-09-30T13:27:12;5.10;;;3.40;;
12635;SDS011;6383;50.830;7.210;2023-09-30T13:29:44;6.05;;;3.55;;
12635;SDS011;6383;50.830;7.210;2023-09-30T13:32:14;7.30;;;3.35;;
12635;SDS011;6383;50.830;7.210;2023-09-30T13:34:46;6.50;;;3.88;;
12635;SDS011;6383;50.830;7.210;2023-09-30T13:37:15;7.20;;;3.90;;
12635;SDS011;6383;50.830;7.210;2023-09-30T13:39:42;8.10;;;3.60;;
12635;SDS011;6383;50.830;7.210;2023-09-30T13:42:10;5.73;;;3.80;;
12635;SDS011;6383;50.830;7.210;2023-09-30T13:44:39;8.93;;;3.90;;
12635;SDS011;6383;50.830;7.210;2023-09-30T13:47:08;6.43;;;3.63;;
12635;SDS011;6383;50.830;7.210;2023-09-30T13:49:38;5.53;;;3.50;;
12635;SDS011;6383;50.830;7.210;2023-09-30T13:52:07;6.93;;;3.85;;
12635;SDS011;6383;50.830;7.210;2023-09-30T13:54:35;6.18;;;3.55;;
12635;SDS011;6383;50.830;7.210;2023-09-30T13:57:07;9.65;;;5.35;;
12635;SDS011;6383;50.830;7.210;2023-09-30T13:59:36;8.13;;;4.57;;
12635;SDS011;6383;50.830;7.210;2023-09-30T14:02:05;7.53;;;4.03;;
12635;SDS011;6383;50.830;7.210;2023-09-30T14:04:33;7.53;;;3.40;;
12635;SDS011;6383;50.830;7.210;2023-09-30T14:07:04;7.00;;;3.70;;
12635;SDS011;6383;50.830;7.210;2023-09-30T14:09:34;5.68;;;3.33;;
12635;SDS011;6383;50.830;7.210;2023-09-30T14:12:02;6.80;;;3.50;;
12635;SDS011;6383;50.830;7.210;2023-09-30T14:14:30;8.50;;;3.25;;
12635;SDS011;6383;50.830;7.210;2023-09-30T14:17:00;6.45;;;3.20;;
12635;SDS011;6383;50.830;7.210;2023-09-30T14:19:33;5.33;;;2.97;;
12635;SDS011;6383;50.830;7.210;2023-09-30T14:22:02;5.80;;;3.35;;
12635;SDS011;6383;50.830;7.210;2023-09-30T14:24:33;5.40;;;3.10;;
12635;SDS011;6383;50.830;7.210;2023-09-30T14:27:03;7.93;;;3.17;;
12635;SDS011;6383;50.830;7.210;2023-09-30T14:29:33;5.20;;;3.13;;
12635;SDS011;6383;50.830;7.210;2023-09-30T14:32:02;6.20;;;3.33;;
12635;SDS011;6383;50.830;7.210;2023-09-30T14:34:31;5.50;;;3.13;;
12635;SDS011;6383;50.830;7.210;2023-09-30T14:37:00;6.82;;;3.15;;
12635;SDS011;6383;50.830;7.210;2023-09-30T14:39:29;5.82;;;3.50;;
12635;SDS011;6383;50.830;7.210;2023-09-30T14:41:59;5.87;;;2.93;;
12635;SDS011;6383;50.830;7.210;2023-09-30T14:44:26;8.68;;;3.15;;
12635;SDS011;6383;50.830;7.210;2023-09-30T14:46:55;7.65;;;3.00;;
12635;SDS011;6383;50.830;7.210;2023-09-30T14:49:23;7.00;;;3.55;;
12635;SDS011;6383;50.830;7.210;2023-09-30T14:51:51;5.95;;;2.88;;
12635;SDS011;6383;50.830;7.210;2023-09-30T14:54:20;6.72;;;3.20;;
12635;SDS011;6383;50.830;7.210;2023-09-30T14:56:49;6.30;;;3.17;;
12635;SDS011;6383;50.830;7.210;2023-09-30T14:59:19;8.75;;;3.00;;
12635;SDS011;6383;50.830;7.210;2023-09-30T15:01:47;6.40;;;3.22;;
12635;SDS011;6383;50.830;7.210;2023-09-30T15:04:17;5.68;;;2.88;;
12635;SDS011;6383;50.830;7.210;2023-09-30T15:06:46;6.15;;;3.33;;
12635;SDS011;6383;50.830;7.210;2023-09-30T15:09:15;5.93;;;3.03;;
12635;SDS011;6383;50.830;7.210;2023-09-30T15:11:42;3.38;;;2.70;;
12635;SDS011;6383;50.830;7.210;2023-09-30T15:14:11;5.03;;;3.28;;
12635;SDS011;6383;50.830;7.210;2023-09-30T15:16:41;7.10;;;3.53;;
12635;SDS011;6383;50.830;7.210;2023-09-30T15:19:09;7.25;;;3.40;;
12635;SDS011;6383;50.830;7.210;2023-09-30T15:21:38;8.13;;;4.20;;